Time;durP1;ratioP1;P1;durP2;ratioP2;P2;SDS_P1;SDS_P2;PMS_P1;PMS_P2;Temp;Humidity;BMP_temperature;BMP_pressure;BME280_temperature;BME280_humidity;BME280_pressure;Samples;Min_cycle;Max_cycle;Signal;HPM_P1;HPM_P2
2023/04/12 00:02:14;;;;;;;39.00;7.63;;;14.50;83.20;;;;;;5044676;28;20026;-56
2023/04/12 00:04:40;;;;;;;32.83;6.95;;;14.50;83.20;;;;;;5043132;28;20021;-55
2023/04/12 00:07:08;;;;;;;29.48;7.88;;;14.50;83.20;;;;;;5043569;28;20099;-55
2023/04/12 00:09:35;;;;;;;36.10;7.18;;;14.50;83.20;;;;;;5044388;28;20049;-56
2023/04/12 00:12:01;;;;;;;34.88;7.13;;;14.40;83.30;;;;;;5043015;28;20065;-56
2023/04/12 00:14:27;;;;;;;36.50;7.72;;;14.40;83.30;;;;;;5026885;28;20060;-56
2023/04/12 00:16:53;;;;;;;27.27;7.47;;;14.40;83.30;;;;;;5044412;28;20025;-56
2023/04/12 00:19:18;;;;;;;31.67;7.28;;;14.40;83.40;;;;;;5042944;28;20454;-56
2023/04/12 00:21:44;;;;;;;27.75;6.55;;;14.40;83.50;;;;;;5044550;28;20044;-56
2023/04/12 00:24:09;;;;;;;41.60;7.05;;;14.30;83.40;;;;;;5042918;28;20056;-56
2023/04/12 00:26:35;;;;;;;27.08;6.53;;;14.30;83.50;;;;;;5043065;28;20107;-56
2023/04/12 00:29:00;;;;;;;27.17;6.63;;;14.30;83.50;;;;;;5042861;28;20025;-56
2023/04/12 00:31:26;;;;;;;27.15;6.25;;;14.30;83.60;;;;;;5043078;28;20040;-55
2023/04/12 00:33:52;;;;;;;28.98;6.93;;;14.30;83.60;;;;;;5043574;28;20120;-56
2023/04/12 00:36:17;;;;;;;33.13;6.90;;;14.30;83.60;;;;;;5042876;28;20360;-56
2023/04/12 00:38:44;;;;;;;24.30;5.47;;;14.30;83.70;;;;;;5044099;28;20033;-56
2023/04/12 00:41:10;;;;;;;25.85;6.25;;;14.20;83.60;;;;;;5042971;28;20060;-56
2023/04/12 00:43:36;;;;;;;28.45;6.93;;;14.20;83.70;;;;;;5044227;28;20029;-56
2023/04/12 00:46:02;;;;;;;20.48;5.30;;;14.20;83.70;;;;;;5026199;28;20029;-56
2023/04/12 00:48:27;;;;;;;35.63;6.70;;;14.20;83.70;;;;;;5026354;28;20089;-56
2023/04/12 00:50:56;;;;;;;25.73;5.88;;;14.20;83.80;;;;;;5026002;28;20087;-56
2023/04/12 00:53:22;;;;;;;19.77;5.60;;;14.10;83.80;;;;;;5026899;28;20037;-56
2023/04/12 00:55:48;;;;;;;17.60;5.40;;;14.10;83.80;;;;;;5042785;28;20367;-56
2023/04/12 00:58:15;;;;;;;25.92;5.80;;;14.10;83.90;;;;;;5044920;28;20156;-56
2023/04/12 01:00:40;;;;;;;27.13;5.85;;;14.10;83.80;;;;;;5046163;28;20048;-56
2023/04/12 01:03:07;;;;;;;14.82;5.20;;;14.10;83.70;;;;;;5013354;28;20093;-56
2023/04/12 01:05:37;;;;;;;26.45;5.90;;;14.10;83.60;;;;;;5029890;28;20060;-56
2023/04/12 01:08:30;;;;;;;24.20;4.95;;;14.10;83.70;;;;;;5030144;28;20029;-56
2023/04/12 01:11:12;;;;;;;15.50;4.95;;;14.10;83.80;;;;;;5014491;28;20041;-56
2023/04/12 01:13:44;;;;;;;23.95;5.18;;;14.10;83.80;;;;;;5046307;28;20029;-56
2023/04/12 01:16:16;;;;;;;23.08;4.78;;;14.00;83.70;;;;;;5046051;28;20044;-56
2023/04/12 01:18:44;;;;;;;19.80;4.53;;;14.00;83.90;;;;;;5045942;28;20017;-56
2023/04/12 01:21:14;;;;;;;20.63;4.93;;;14.00;83.90;;;;;;5029667;28;20036;-56
2023/04/12 01:24:23;;;;;;;18.23;4.47;;;14.00;84.00;;;;;;5029423;28;20030;-56
2023/04/12 01:26:50;;;;;;;23.33;4.50;;;13.90;84.00;;;;;;5013521;28;20046;-56
2023/04/12 01:29:18;;;;;;;14.23;4.13;;;13.90;84.80;;;;;;5025376;28;20037;-56
2023/04/12 01:31:57;;;;;;;15.15;4.35;;;13.90;84.80;;;;;;5029032;28;20060;-56
2023/04/12 01:34:22;;;;;;;17.30;4.35;;;13.80;84.10;;;;;;5045908;28;20446;-56
2023/04/12 01:36:48;;;;;;;14.05;4.72;;;13.90;84.30;;;;;;5029492;28;20029;-56
2023/04/12 01:39:14;;;;;;;18.17;5.55;;;13.80;84.20;;;;;;5012656;28;20041;-56
2023/04/12 01:41:41;;;;;;;15.68;5.10;;;13.80;84.20;;;;;;5045584;28;20044;-56
2023/04/12 01:44:06;;;;;;;15.13;5.40;;;13.80;84.10;;;;;;5045561;28;20042;-56
2023/04/12 01:46:33;;;;;;;14.75;5.18;;;13.80;84.20;;;;;;5046109;28;20120;-56
2023/04/12 01:48:58;;;;;;;13.95;5.30;;;13.80;84.40;;;;;;5029157;28;20025;-56
2023/04/12 01:51:48;;;;;;;18.52;4.85;;;13.80;84.30;;;;;;5028766;28;20044;-56
2023/04/12 01:54:18;;;;;;;16.42;5.25;;;13.80;84.20;;;;;;5046611;28;20021;-56
2023/04/12 01:56:45;;;;;;;16.08;4.93;;;13.80;84.20;;;;;;5029121;28;20037;-56
2023/04/12 01:59:14;;;;;;;13.82;4.78;;;13.80;84.20;;;;;;5012428;28;20022;-56
2023/04/12 02:01:40;;;;;;;16.23;4.43;;;13.70;84.20;;;;;;5028942;28;20038;-56
2023/04/12 02:04:05;;;;;;;11.80;4.22;;;13.70;84.20;;;;;;5045104;28;20026;-56
2023/04/12 02:06:31;;;;;;;17.60;4.63;;;13.70;84.30;;;;;;5028585;28;20112;-56
2023/04/12 02:09:01;;;;;;;15.48;4.35;;;13.70;85.00;;;;;;5028429;28;20026;-56
2023/04/12 02:11:27;;;;;;;14.50;4.32;;;13.70;84.40;;;;;;5028933;28;20054;-56
2023/04/12 02:13:52;;;;;;;14.60;4.32;;;13.70;84.40;;;;;;5045009;28;20041;-56
2023/04/12 02:16:19;;;;;;;14.02;4.80;;;13.60;84.30;;;;;;5044826;28;20026;-56
2023/04/12 02:18:46;;;;;;;17.85;4.70;;;13.60;84.40;;;;;;5046355;28;20041;-56
2023/04/12 02:21:11;;;;;;;12.38;4.53;;;13.60;85.00;;;;;;5044712;28;20033;-56
2023/04/12 02:23:37;;;;;;;14.48;4.80;;;13.60;84.50;;;;;;5044820;28;20025;-56
2023/04/12 02:26:02;;;;;;;15.52;4.72;;;13.60;84.60;;;;;;5044595;28;20060;-56
2023/04/12 02:28:28;;;;;;;10.40;4.70;;;13.60;84.70;;;;;;5045791;28;20029;-56
2023/04/12 02:30:54;;;;;;;21.02;5.05;;;13.60;84.80;;;;;;5045825;28;20037;-56
2023/04/12 02:33:29;;;;;;;15.32;4.70;;;13.60;84.80;;;;;;5046082;28;20037;-56
2023/04/12 02:35:56;;;;;;;15.70;4.82;;;13.60;85.50;;;;;;5029495;28;20025;-56
2023/04/12 02:38:22;;;;;;;11.07;4.57;;;13.60;85.20;;;;;;5044756;28;20036;-56
2023/04/12 02:40:47;;;;;;;13.95;4.68;;;13.60;85.00;;;;;;5044397;28;20036;-56
2023/04/12 02:43:13;;;;;;;15.10;5.03;;;13.60;84.90;;;;;;5044509;28;20052;-56
2023/04/12 02:45:38;;;;;;;19.13;5.65;;;13.60;84.90;;;;;;5044459;28;20041;-56
2023/04/12 02:48:04;;;;;;;19.92;5.70;;;13.60;84.90;;;;;;5044269;28;20083;-56
2023/04/12 02:50:30;;;;;;;17.30;7.05;;;13.60;85.00;;;;;;5045469;28;20044;-56
2023/04/12 02:52:56;;;;;;;17.33;6.82;;;13.50;84.90;;;;;;5044461;28;20018;-56
2023/04/12 02:55:21;;;;;;;12.60;5.85;;;13.50;84.90;;;;;;5045546;28;20029;-56
2023/04/12 02:57:47;;;;;;;13.75;6.35;;;13.50;85.00;;;;;;5044587;28;20089;-56
2023/04/12 03:00:14;;;;;;;12.30;6.10;;;13.50;85.00;;;;;;5027662;28;20033;-56
2023/04/12 03:02:40;;;;;;;11.55;5.55;;;13.50;85.10;;;;;;5044289;28;20033;-56
2023/04/12 03:05:06;;;;;;;8.95;5.55;;;13.50;85.10;;;;;;5027691;28;20021;-55
2023/04/12 03:07:32;;;;;;;11.70;4.93;;;13.50;85.90;;;;;;5043935;28;20376;-56
2023/04/12 03:09:58;;;;;;;12.63;4.82;;;13.40;85.20;;;;;;5043910;28;20059;-56
2023/04/12 03:12:23;;;;;;;14.73;5.47;;;13.40;85.30;;;;;;5043896;28;20040;-56
2023/04/12 03:14:49;;;;;;;11.25;4.78;;;13.40;85.40;;;;;;5044018;28;20021;-56
2023/04/12 03:17:14;;;;;;;12.85;4.88;;;13.40;85.40;;;;;;5043805;28;20095;-56
2023/04/12 03:19:40;;;;;;;9.43;3.75;;;13.40;85.40;;;;;;5045314;28;20022;-55
2023/04/12 03:22:05;;;;;;;7.72;3.92;;;13.40;85.40;;;;;;5043519;28;20045;-56
2023/04/12 03:24:35;;;;;;;12.13;4.25;;;13.40;85.50;;;;;;5043697;28;20029;-56
2023/04/12 03:27:01;;;;;;;9.75;3.70;;;13.30;85.50;;;;;;5043334;28;20045;-55
2023/04/12 03:29:27;;;;;;;14.30;4.43;;;13.30;85.60;;;;;;5043885;28;20029;-56
2023/04/12 03:31:53;;;;;;;10.18;4.80;;;13.30;85.70;;;;;;5027347;28;20100;-56
2023/04/12 03:34:18;;;;;;;19.83;5.88;;;13.30;85.80;;;;;;5043729;28;20021;-56
2023/04/12 03:36:44;;;;;;;16.83;7.00;;;13.30;85.80;;;;;;5043548;28;20021;-56
2023/04/12 03:39:10;;;;;;;22.27;7.03;;;13.30;85.90;;;;;;5043738;28;20039;-56
2023/04/12 03:41:35;;;;;;;14.80;5.07;;;13.30;85.90;;;;;;5043106;28;20060;-56
2023/04/12 03:44:01;;;;;;;12.45;5.28;;;13.30;85.90;;;;;;5045002;28;20029;-56
2023/04/12 03:46:27;;;;;;;18.70;6.32;;;13.30;85.90;;;;;;5044869;28;20537;-56
2023/04/12 03:48:52;;;;;;;34.03;7.10;;;13.20;85.90;;;;;;5044417;28;20052;-55
2023/04/12 03:51:20;;;;;;;32.55;6.60;;;13.20;86.00;;;;;;5027747;28;20044;-56
2023/04/12 03:53:46;;;;;;;27.95;6.70;;;13.20;86.10;;;;;;5045802;28;20450;-56
2023/04/12 03:56:12;;;;;;;25.35;6.85;;;13.20;86.80;;;;;;5026944;28;20068;-56
2023/04/12 03:58:37;;;;;;;28.33;6.10;;;13.20;86.20;;;;;;5043214;28;20073;-56
2023/04/12 04:01:06;;;;;;;26.00;6.50;;;13.20;86.10;;;;;;5026821;28;20033;-56
2023/04/12 04:03:33;;;;;;;19.98;4.68;;;13.20;86.10;;;;;;5043210;28;20052;-56
2023/04/12 04:06:02;;;;;;;26.75;5.00;;;13.20;86.10;;;;;;5043056;28;20033;-56
2023/04/12 04:08:28;;;;;;;27.33;5.10;;;13.20;86.20;;;;;;5010218;28;20030;-56
2023/04/12 04:10:55;;;;;;;22.00;5.68;;;13.20;86.30;;;;;;5042999;28;20390;-56
2023/04/12 04:13:21;;;;;;;18.05;4.90;;;13.20;86.30;;;;;;5043111;28;20021;-56
2023/04/12 04:15:50;;;;;;;23.13;4.63;;;13.20;86.40;;;;;;5044378;28;20056;-56
2023/04/12 04:18:16;;;;;;;19.08;4.78;;;13.10;86.30;;;;;;5026718;28;20029;-56
2023/04/12 04:20:41;;;;;;;19.35;4.88;;;13.10;86.30;;;;;;5044294;28;20045;-56
2023/04/12 04:23:09;;;;;;;21.95;4.63;;;13.10;86.30;;;;;;5043043;28;20021;-56
2023/04/12 04:25:38;;;;;;;28.48;5.57;;;13.10;86.40;;;;;;5044449;28;20104;-56
2023/04/12 04:28:06;;;;;;;20.50;4.50;;;13.10;86.50;;;;;;5043030;28;20037;-56
2023/04/12 04:30:33;;;;;;;17.77;4.57;;;13.10;86.50;;;;;;5026734;28;20063;-56
2023/04/12 04:32:58;;;;;;;15.50;4.53;;;13.10;86.60;;;;;;5043023;28;20022;-56
2023/04/12 04:35:24;;;;;;;18.70;4.43;;;13.10;86.70;;;;;;5046809;28;20121;-56
2023/04/12 04:37:51;;;;;;;13.30;3.85;;;13.10;86.90;;;;;;5046845;28;20026;-56
2023/04/12 04:40:20;;;;;;;13.85;4.22;;;13.10;87.20;;;;;;5013993;28;20053;-56
2023/04/12 04:42:53;;;;;;;20.20;4.53;;;13.10;87.30;;;;;;5046845;28;20025;-56
2023/04/12 04:45:20;;;;;;;15.25;4.20;;;13.00;87.40;;;;;;5046659;28;20060;-56
2023/04/12 04:47:46;;;;;;;16.38;4.05;;;13.00;87.50;;;;;;5046395;28;20030;-55
2023/04/12 04:50:11;;;;;;;15.57;4.00;;;13.00;87.60;;;;;;5046246;28;20064;-55
2023/04/12 04:52:38;;;;;;;13.07;3.45;;;13.00;87.50;;;;;;5047673;28;20053;-56
2023/04/12 04:55:04;;;;;;;21.42;3.88;;;13.10;87.40;;;;;;5046271;28;20075;-56
2023/04/12 04:57:29;;;;;;;15.65;3.50;;;13.00;87.30;;;;;;5029764;28;20025;-56
2023/04/12 04:59:55;;;;;;;15.52;3.78;;;13.00;87.10;;;;;;5046420;28;20075;-55
2023/04/12 05:02:21;;;;;;;9.30;3.33;;;13.00;87.20;;;;;;5029729;28;20219;-55
2023/04/12 05:04:46;;;;;;;13.90;3.20;;;13.00;87.30;;;;;;5046284;28;20085;-55
2023/04/12 05:07:13;;;;;;;17.25;3.35;;;13.00;87.40;;;;;;5046131;28;20037;-55
2023/04/12 05:09:38;;;;;;;18.90;4.00;;;13.00;87.50;;;;;;5047469;28;20040;-56
2023/04/12 05:12:04;;;;;;;10.75;3.60;;;12.90;87.40;;;;;;5047858;28;20037;-55
2023/04/12 05:14:30;;;;;;;14.98;3.70;;;13.00;87.60;;;;;;5047477;28;20037;-56
2023/04/12 05:16:56;;;;;;;15.25;3.30;;;12.90;87.50;;;;;;5045780;28;20025;-56
2023/04/12 05:19:21;;;;;;;19.40;3.38;;;12.90;87.50;;;;;;5046083;28;20036;-55
2023/04/12 05:21:47;;;;;;;10.30;2.88;;;13.00;87.60;;;;;;5045949;28;20034;-56
2023/04/12 05:24:12;;;;;;;10.75;3.33;;;12.90;88.10;;;;;;5012904;28;20049;-56
2023/04/12 05:26:38;;;;;;;14.20;3.30;;;13.00;87.40;;;;;;5047329;28;20026;-56
2023/04/12 05:29:05;;;;;;;9.23;3.35;;;13.00;87.30;;;;;;5045858;28;20075;-55
2023/04/12 05:31:31;;;;;;;12.00;2.90;;;12.90;87.20;;;;;;5045728;28;20048;-55
2023/04/12 05:33:56;;;;;;;16.30;3.42;;;12.90;87.30;;;;;;5047553;28;20025;-55
2023/04/12 05:36:22;;;;;;;5.68;2.72;;;12.90;87.30;;;;;;5047243;28;20030;-55
2023/04/12 05:38:47;;;;;;;13.75;2.85;;;12.90;87.30;;;;;;5029514;28;20025;-56
2023/04/12 05:41:13;;;;;;;6.60;3.08;;;12.90;87.30;;;;;;5045705;28;20056;-56
2023/04/12 05:43:38;;;;;;;7.55;2.80;;;12.90;87.30;;;;;;5045325;28;20040;-56
2023/04/12 05:46:06;;;;;;;8.18;3.03;;;12.90;87.30;;;;;;5047378;28;20030;-55
2023/04/12 05:48:32;;;;;;;8.10;2.58;;;12.90;87.40;;;;;;5047051;28;20039;-56
2023/04/12 05:50:57;;;;;;;10.27;2.78;;;12.90;87.30;;;;;;5046532;28;20057;-56
2023/04/12 05:53:23;;;;;;;7.75;2.60;;;12.80;87.30;;;;;;5046808;28;20052;-56
2023/04/12 05:55:50;;;;;;;9.63;2.83;;;12.80;87.20;;;;;;5045373;28;20022;-56
2023/04/12 05:58:16;;;;;;;6.85;2.53;;;12.90;87.20;;;;;;5045240;28;20109;-56
2023/04/12 06:00:41;;;;;;;11.77;2.65;;;12.80;87.30;;;;;;5045059;28;20079;-56
2023/04/12 06:03:09;;;;;;;6.10;2.42;;;12.90;87.40;;;;;;5045256;28;20022;-56
2023/04/12 06:05:34;;;;;;;11.50;2.10;;;12.90;87.50;;;;;;5045074;28;20037;-56
2023/04/12 06:08:00;;;;;;;9.95;2.47;;;12.80;87.50;;;;;;5028932;28;20025;-56
2023/04/12 06:10:26;;;;;;;8.02;2.33;;;12.80;87.50;;;;;;5028476;28;20053;-56
2023/04/12 06:12:52;;;;;;;5.57;2.30;;;12.80;87.60;;;;;;5037781;28;20025;-56
2023/04/12 06:15:19;;;;;;;8.05;2.30;;;12.80;87.70;;;;;;5037991;28;20026;-56
2023/04/12 06:17:45;;;;;;;6.80;2.30;;;12.80;87.70;;;;;;5031851;28;20021;-56
2023/04/12 06:20:11;;;;;;;4.55;1.90;;;12.80;87.80;;;;;;5029918;28;20040;-55
2023/04/12 06:22:37;;;;;;;7.55;2.28;;;12.80;87.80;;;;;;5040960;28;20109;-56
2023/04/12 06:25:03;;;;;;;7.93;2.17;;;12.80;87.90;;;;;;5029623;28;20473;-56
2023/04/12 06:27:29;;;;;;;10.73;2.28;;;12.80;87.90;;;;;;5034033;28;20128;-56
2023/04/12 06:29:54;;;;;;;9.88;2.13;;;12.90;87.90;;;;;;5070333;28;20025;-56
2023/04/12 06:32:20;;;;;;;8.45;2.15;;;12.80;87.80;;;;;;5040203;28;20104;-56
2023/04/12 06:34:46;;;;;;;11.48;2.47;;;12.90;87.80;;;;;;5036126;28;20032;-56
2023/04/12 06:37:11;;;;;;;8.25;2.08;;;12.90;87.80;;;;;;5036931;28;20037;-56
2023/04/12 06:39:37;;;;;;;5.43;2.03;;;12.90;87.70;;;;;;5033229;28;20033;-56
2023/04/12 06:42:03;;;;;;;7.65;2.00;;;12.90;87.60;;;;;;5036358;28;20064;-56
2023/04/12 06:44:28;;;;;;;13.15;2.38;;;12.90;87.60;;;;;;5036117;28;20033;-56
2023/04/12 06:46:54;;;;;;;9.77;1.92;;;12.90;87.50;;;;;;5044006;28;20033;-56
2023/04/12 06:49:19;;;;;;;12.98;2.25;;;12.90;87.60;;;;;;5035315;28;20052;-56
2023/04/12 06:51:45;;;;;;;13.80;3.20;;;12.90;87.60;;;;;;5055219;28;20030;-56
2023/04/12 06:54:11;;;;;;;8.70;2.45;;;12.90;87.50;;;;;;5039502;28;20033;-56
2023/04/12 06:56:37;;;;;;;13.88;2.42;;;12.90;87.50;;;;;;5063588;28;20112;-56
2023/04/12 06:59:02;;;;;;;15.25;2.33;;;12.90;87.50;;;;;;5038298;28;20075;-56
2023/04/12 07:01:28;;;;;;;11.15;2.72;;;12.90;87.40;;;;;;5033188;28;20049;-56
2023/04/12 07:03:53;;;;;;;12.88;2.05;;;13.00;87.40;;;;;;5043436;28;20431;-56
2023/04/12 07:06:19;;;;;;;5.22;2.15;;;13.00;87.30;;;;;;5023811;28;20041;-56
2023/04/12 07:08:45;;;;;;;11.13;1.90;;;13.00;87.30;;;;;;5048033;28;20038;-56
2023/04/12 07:11:10;;;;;;;6.35;2.17;;;13.00;87.30;;;;;;5044709;28;20095;-55
2023/04/12 07:13:36;;;;;;;12.10;1.98;;;13.10;87.30;;;;;;5037096;28;20014;-56
2023/04/12 07:16:02;;;;;;;11.23;2.15;;;13.10;87.30;;;;;;5037543;28;20030;-56
2023/04/12 07:18:27;;;;;;;7.15;2.60;;;13.10;87.20;;;;;;5032430;28;20026;-56
2023/04/12 07:20:55;;;;;;;6.40;1.95;;;12.80;86.90;;;;;;5027109;28;20037;-56
2023/04/12 07:23:20;;;;;;;13.60;2.30;;;13.10;87.00;;;;;;5018469;28;20025;-55
2023/04/12 07:25:46;;;;;;;10.98;2.25;;;13.10;87.00;;;;;;5040100;28;20355;-56
2023/04/12 07:28:11;;;;;;;18.67;2.92;;;13.10;87.00;;;;;;5027052;28;20037;-56
2023/04/12 07:30:40;;;;;;;19.15;2.80;;;13.10;87.40;;;;;;5024022;28;20061;-56
2023/04/12 07:33:06;;;;;;;18.27;3.50;;;13.20;87.50;;;;;;5043515;28;20056;-56
2023/04/12 07:35:32;;;;;;;20.27;3.22;;;13.20;87.60;;;;;;5063225;28;20029;-56
2023/04/12 07:37:57;;;;;;;13.75;2.10;;;13.20;87.80;;;;;;5063059;28;20040;-56
2023/04/12 07:40:23;;;;;;;15.30;2.53;;;13.20;87.60;;;;;;5047615;28;20076;-56
2023/04/12 07:42:49;;;;;;;8.30;2.42;;;13.30;87.40;;;;;;5030218;28;20034;-56
2023/04/12 07:45:14;;;;;;;6.30;2.08;;;13.30;87.20;;;;;;5040536;28;20472;-56
2023/04/12 07:47:40;;;;;;;17.35;3.05;;;13.30;87.20;;;;;;5022312;28;20105;-56
2023/04/12 07:50:06;;;;;;;18.15;3.30;;;13.30;87.40;;;;;;5033372;28;20038;-56
2023/04/12 07:52:32;;;;;;;32.08;3.97;;;13.40;87.50;;;;;;5059186;28;20029;-56
2023/04/12 07:54:57;;;;;;;24.65;3.65;;;13.40;87.80;;;;;;5041615;28;20081;-56
2023/04/12 07:57:23;;;;;;;17.85;3.33;;;13.40;88.10;;;;;;5053702;28;20044;-56
2023/04/12 07:59:49;;;;;;;22.95;3.33;;;13.40;88.20;;;;;;5053325;28;20120;-56
2023/04/12 08:02:23;;;;;;;29.77;3.88;;;13.50;88.00;;;;;;5045305;28;20041;-55
2023/04/12 08:04:51;;;;;;;18.73;3.60;;;13.50;88.00;;;;;;5035354;28;20537;-56
2023/04/12 08:07:17;;;;;;;25.55;3.10;;;13.50;87.80;;;;;;5042398;28;20044;-56
2023/04/12 08:09:43;;;;;;;35.00;4.10;;;13.60;87.80;;;;;;5047211;28;20029;-56
2023/04/12 08:12:08;;;;;;;49.25;5.78;;;13.60;87.70;;;;;;5046903;28;20056;-56
2023/04/12 08:14:34;;;;;;;36.35;5.78;;;13.60;87.80;;;;;;5046032;28;20103;-56
2023/04/12 08:17:00;;;;;;;61.47;5.07;;;13.60;87.80;;;;;;5046579;28;20160;-56
2023/04/12 08:19:26;;;;;;;31.52;4.95;;;13.70;87.70;;;;;;5047087;28;20033;-56
2023/04/12 08:21:52;;;;;;;49.72;4.88;;;13.70;87.60;;;;;;5048265;28;20485;-56
2023/04/12 08:24:18;;;;;;;56.58;6.05;;;13.70;87.80;;;;;;5029575;28;20086;-56
2023/04/12 08:26:44;;;;;;;57.85;6.28;;;13.80;87.90;;;;;;5044679;28;20040;-56
2023/04/12 08:29:10;;;;;;;52.28;6.68;;;13.80;88.10;;;;;;5046432;28;20033;-55
2023/04/12 08:31:35;;;;;;;91.60;10.07;;;13.80;87.90;;;;;;5045427;28;20049;-55
2023/04/12 08:34:01;;;;;;;79.28;8.80;;;13.90;87.90;;;;;;5029805;28;20021;-56
2023/04/12 08:36:26;;;;;;;78.20;7.82;;;13.90;88.00;;;;;;5046282;28;20033;-56
2023/04/12 08:38:54;;;;;;;88.45;8.52;;;13.90;88.20;;;;;;5046369;28;20017;-56
2023/04/12 08:41:20;;;;;;;78.70;8.65;;;14.00;88.30;;;;;;5047632;28;20036;-56
2023/04/12 08:43:46;;;;;;;96.75;10.80;;;14.00;88.50;;;;;;5046331;28;20026;-56
2023/04/12 08:46:15;;;;;;;115.68;11.05;;;14.00;88.50;;;;;;5046107;28;20033;-56
2023/04/12 08:48:45;;;;;;;101.18;11.27;;;14.00;88.40;;;;;;5030090;28;20096;-56
2023/04/12 08:51:13;;;;;;;243.90;26.70;;;14.10;88.50;;;;;;5046487;28;20033;-56
2023/04/12 08:53:38;;;;;;;91.60;12.25;;;14.10;88.50;;;;;;5046225;28;20025;-56
2023/04/12 08:56:06;;;;;;;103.50;11.98;;;14.10;88.50;;;;;;5046328;28;20030;-56
2023/04/12 08:58:31;;;;;;;100.28;12.15;;;14.10;88.30;;;;;;5046335;28;20111;-56
2023/04/12 09:00:57;;;;;;;94.22;12.38;;;14.20;88.70;;;;;;5045909;28;20470;-56
2023/04/12 09:03:23;;;;;;;128.30;13.40;;;14.20;88.80;;;;;;5046146;28;20087;-56
2023/04/12 09:05:48;;;;;;;138.95;14.68;;;14.20;88.90;;;;;;5047145;28;20033;-56
2023/04/12 09:08:15;;;;;;;170.30;18.73;;;14.30;88.90;;;;;;5063618;28;20059;-56
2023/04/12 09:10:41;;;;;;;122.50;15.20;;;14.30;88.80;;;;;;5059995;28;20100;-56
2023/04/12 09:13:07;;;;;;;118.32;14.25;;;14.30;89.00;;;;;;5063316;28;20091;-56
2023/04/12 09:15:33;;;;;;;136.40;15.00;;;14.30;88.80;;;;;;5056007;28;20029;-56
2023/04/12 09:18:09;;;;;;;136.77;15.15;;;14.40;88.90;;;;;;5046030;28;20040;-56
2023/04/12 09:20:35;;;;;;;84.10;10.15;;;14.40;88.70;;;;;;5027763;28;20037;-56
2023/04/12 09:23:01;;;;;;;83.72;11.18;;;14.40;88.60;;;;;;5042315;28;20080;-56
2023/04/12 09:25:44;;;;;;;107.68;12.27;;;14.40;88.40;;;;;;5033809;28;20100;-56
2023/04/12 09:28:25;;;;;;;93.53;11.73;;;14.50;88.70;;;;;;5057177;28;20021;-56
2023/04/12 09:30:55;;;;;;;111.10;13.68;;;14.50;88.20;;;;;;5059360;28;20061;-56
2023/04/12 09:33:22;;;;;;;103.38;12.95;;;14.60;88.20;;;;;;5050719;28;20036;-56
2023/04/12 09:35:48;;;;;;;148.43;16.30;;;14.60;88.70;;;;;;5053605;28;20030;-56
2023/04/12 09:38:14;;;;;;;146.15;15.45;;;14.70;88.10;;;;;;5044973;28;20085;-56
2023/04/12 09:40:40;;;;;;;213.90;20.55;;;14.70;88.00;;;;;;5042843;28;20033;-56
2023/04/12 09:43:05;;;;;;;129.88;16.75;;;14.80;88.10;;;;;;5044063;28;20100;-56
2023/04/12 09:45:34;;;;;;;213.07;23.23;;;14.80;88.30;;;;;;5045189;28;20065;-56
2023/04/12 09:47:59;;;;;;;143.35;18.77;;;14.80;88.20;;;;;;5061306;28;20089;-56
2023/04/12 09:50:29;;;;;;;138.45;15.48;;;14.80;88.10;;;;;;5040181;28;20343;-56
2023/04/12 09:52:58;;;;;;;129.73;15.40;;;14.90;88.00;;;;;;5030216;28;20030;-56
2023/04/12 09:55:25;;;;;;;154.05;18.75;;;14.90;87.70;;;;;;5056871;28;20072;-56
2023/04/12 09:57:51;;;;;;;102.10;14.85;;;14.90;87.80;;;;;;5034568;28;20046;-59
2023/04/12 10:00:17;;;;;;;184.45;18.75;;;15.00;88.00;;;;;;5038531;28;20049;-58
2023/04/12 10:02:48;;;;;;;160.05;18.90;;;15.00;87.80;;;;;;5026971;28;20026;-58
2023/04/12 10:05:15;;;;;;;87.97;10.90;;;15.00;87.80;;;;;;5027617;28;20029;-58
2023/04/12 10:07:41;;;;;;;108.00;12.48;;;15.10;87.50;;;;;;5043827;28;20095;-58
2023/04/12 10:10:08;;;;;;;181.48;20.05;;;15.10;87.30;;;;;;5043841;28;20026;-58
2023/04/12 10:12:35;;;;;;;106.70;13.55;;;15.10;86.90;;;;;;5043705;28;20036;-58
2023/04/12 10:15:12;;;;;;;120.53;14.27;;;15.20;86.80;;;;;;5043346;28;20068;-58
2023/04/12 10:17:51;;;;;;;121.47;15.60;;;15.20;86.70;;;;;;5043360;28;20063;-58
2023/04/12 10:20:17;;;;;;;119.65;13.27;;;15.30;86.60;;;;;;5043489;28;20159;-58
2023/04/12 10:22:45;;;;;;;134.68;14.75;;;15.30;86.30;;;;;;5040905;28;20025;-58
2023/04/12 10:25:14;;;;;;;180.05;19.70;;;15.40;86.20;;;;;;5038268;28;20140;-58
2023/04/12 10:27:41;;;;;;;120.78;12.85;;;15.40;85.90;;;;;;5013710;28;20097;-58
2023/04/12 10:30:22;;;;;;;92.65;12.40;;;15.50;85.80;;;;;;5069313;28;20117;-58
2023/04/12 10:32:49;;;;;;;79.65;10.60;;;15.50;85.60;;;;;;5042501;28;20044;-58
2023/04/12 10:35:15;;;;;;;84.45;11.50;;;15.50;85.20;;;;;;5041823;28;20029;-58
2023/04/12 10:38:00;;;;;;;60.13;9.50;;;15.60;85.10;;;;;;5040470;28;20039;-59
2023/04/12 10:40:26;;;;;;;65.30;9.07;;;15.60;84.60;;;;;;5039771;28;20065;-58
2023/04/12 10:43:17;;;;;;;56.63;7.10;;;15.70;84.10;;;;;;5040632;28;20427;-58
2023/04/12 10:45:43;;;;;;;69.03;8.68;;;15.70;83.80;;;;;;5032768;28;20095;-58
2023/04/12 10:48:36;;;;;;;67.45;9.48;;;15.80;83.90;;;;;;5065533;28;20025;-58
2023/04/12 10:51:12;;;;;;;75.75;8.75;;;15.80;84.60;;;;;;5037538;28;20093;-58
2023/04/12 10:53:38;;;;;;;55.70;7.38;;;15.80;84.00;;;;;;5034529;28;20033;-57
2023/04/12 10:56:33;;;;;;;62.13;9.00;;;15.80;83.60;;;;;;5029234;28;20112;-58
2023/04/12 10:59:02;;;;;;;47.65;6.60;;;15.90;83.50;;;;;;5024828;28;20022;-58
2023/04/12 11:01:28;;;;;;;57.88;8.15;;;15.90;83.40;;;;;;5029405;28;20030;-58
2023/04/12 11:04:12;;;;;;;61.00;9.10;;;16.00;83.40;;;;;;5020043;28;20037;-58
2023/04/12 11:06:51;;;;;;;87.65;10.75;;;16.00;83.20;;;;;;5022417;28;20072;-58
2023/04/12 11:09:26;;;;;;;84.30;11.07;;;16.10;83.20;;;;;;5055996;28;20062;-58
2023/04/12 11:11:58;;;;;;;;;;;16.00;83.00;;;;;;5036948;28;20033;-58
2023/04/12 11:14:29;;;;;;;69.03;9.27;;;16.10;82.80;;;;;;5065369;28;20099;-58
2023/04/12 11:17:15;;;;;;;75.63;9.60;;;16.10;82.80;;;;;;5050461;28;20048;-57
2023/04/12 11:19:44;;;;;;;65.55;8.20;;;16.10;82.80;;;;;;5061483;28;20021;-57
2023/04/12 11:22:11;;;;;;;57.72;9.35;;;16.10;82.60;;;;;;5036104;28;20046;-58
2023/04/12 11:24:43;;;;;;;64.78;9.55;;;16.10;82.60;;;;;;5042153;28;20029;-58
2023/04/12 11:27:09;;;;;;;73.85;8.63;;;16.20;82.70;;;;;;5043496;28;20045;-57
2023/04/12 11:29:35;;;;;;;71.57;9.10;;;16.20;82.70;;;;;;5038913;28;20052;-57
2023/04/12 11:32:09;;;;;;;60.13;10.13;;;16.20;82.60;;;;;;5044039;28;20034;-58
2023/04/12 11:34:35;;;;;;;59.00;8.52;;;16.20;82.60;;;;;;5040422;28;20021;-58
2023/04/12 11:37:04;;;;;;;38.17;7.82;;;16.30;83.30;;;;;;5040089;28;20033;-58
2023/04/12 11:39:30;;;;;;;54.30;8.85;;;16.30;82.30;;;;;;5034551;28;20025;-57
2023/04/12 11:41:56;;;;;;;46.42;7.22;;;16.30;82.30;;;;;;5034757;28;20037;-57
2023/04/12 11:44:22;;;;;;;69.43;9.55;;;16.40;82.40;;;;;;5021581;28;20025;-58
2023/04/12 11:46:47;;;;;;;72.93;8.55;;;16.40;82.20;;;;;;5048213;28;20045;-57
2023/04/12 11:49:17;;;;;;;156.43;18.70;;;16.40;82.20;;;;;;5035913;28;20034;-57
2023/04/12 11:51:43;;;;;;;117.68;14.15;;;16.40;82.30;;;;;;5036158;28;20044;-57
2023/04/12 11:54:10;;;;;;;135.32;15.63;;;16.40;82.40;;;;;;5042290;28;20053;-58
2023/04/12 11:56:36;;;;;;;97.95;13.00;;;16.40;83.30;;;;;;5047007;28;20137;-57
2023/04/12 11:59:02;;;;;;;61.55;8.93;;;16.50;82.70;;;;;;5049249;28;20089;-58
2023/04/12 12:01:28;;;;;;;33.72;6.38;;;16.50;83.30;;;;;;5039068;28;20040;-58
2023/04/12 12:03:54;;;;;;;51.30;7.03;;;16.50;82.30;;;;;;5039486;28;20038;-58
2023/04/12 12:06:20;;;;;;;69.93;7.45;;;16.50;82.50;;;;;;5021206;28;20033;-57
2023/04/12 12:08:45;;;;;;;58.50;8.27;;;16.50;82.30;;;;;;5039881;28;20109;-58
2023/04/12 12:11:11;;;;;;;61.78;8.05;;;16.60;82.20;;;;;;5022588;28;20029;-58
2023/04/12 12:13:50;;;;;;;72.85;8.23;;;16.60;82.20;;;;;;5037406;28;20037;-58
2023/04/12 12:16:16;;;;;;;56.50;7.75;;;16.60;82.10;;;;;;5030606;28;20095;-57
2023/04/12 12:18:42;;;;;;;55.15;7.82;;;16.60;82.00;;;;;;5032546;28;20026;-58
2023/04/12 12:21:08;;;;;;;51.45;8.02;;;16.60;82.00;;;;;;5033445;28;20050;-58
2023/04/12 12:23:34;;;;;;;61.53;8.80;;;16.60;82.70;;;;;;5040470;28;20549;-58
2023/04/12 12:26:02;;;;;;;62.47;8.65;;;16.60;82.00;;;;;;5040458;28;20034;-57
2023/04/12 12:28:28;;;;;;;66.05;10.82;;;16.60;82.10;;;;;;5032090;28;20091;-58
2023/04/12 12:30:57;;;;;;;106.13;11.35;;;16.60;82.20;;;;;;5012822;28;20302;-58
2023/04/12 12:33:23;;;;;;;73.68;10.68;;;16.70;82.40;;;;;;5037366;28;20040;-57
2023/04/12 12:35:56;;;;;;;64.57;9.25;;;16.70;83.30;;;;;;5032244;28;20045;-58
2023/04/12 12:38:21;;;;;;;73.75;10.45;;;16.60;82.30;;;;;;5036410;28;20030;-58